sensor_id;sensor_type;location;lat;lon;timestamp;temperature;humidity
23283;DHT22;11810;51.178;3.878;2022-09-01T00:02:20;19.10;99.90
23283;DHT22;11810;51.178;3.878;2022-09-01T00:04:46;19.20;99.90
23283;DHT22;11810;51.178;3.878;2022-09-01T00:07:13;19.10;99.90
23283;DHT22;11810;51.178;3.878;2022-09-01T00:09:40;18.90;99.90
23283;DHT22;11810;51.178;3.878;2022-09-01T00:12:08;18.80;99.90
23283;DHT22;11810;51.178;3.878;2022-09-01T00:14:37;18.70;99.90
23283;DHT22;11810;51.178;3.878;2022-09-01T00:17:07;18.70;99.90
23283;DHT22;11810;51.178;3.878;2022-09-01T00:19:33;18.60;99.90
23283;DHT22;11810;51.178;3.878;2022-09-01T00:22:00;18.60;99.90
23283;DHT22;11810;51.178;3.878;2022-09-01T00:24:27;18.50;99.90
23283;DHT22;11810;51.178;3.878;2022-09-01T00:26:53;18.40;99.90
23283;DHT22;11810;51.178;3.878;2022-09-01T00:29:20;18.40;99.90
23283;DHT22;11810;51.178;3.878;2022-09-01T00:31:46;18.20;99.90
23283;DHT22;11810;51.178;3.878;2022-09-01T00:34:12;18.10;99.90
23283;DHT22;11810;51.178;3.878;2022-09-01T00:36:38;18.20;99.90
23283;DHT22;11810;51.178;3.878;2022-09-01T00:39:05;18.00;99.90
23283;DHT22;11810;51.178;3.878;2022-09-01T00:41:34;18.00;99.90
23283;DHT22;11810;51.178;3.878;2022-09-01T00:44:04;17.80;99.90
23283;DHT22;11810;51.178;3.878;2022-09-01T00:46:34;17.80;99.90
23283;DHT22;11810;51.178;3.878;2022-09-01T00:49:14;17.80;99.90
23283;DHT22;11810;51.178;3.878;2022-09-01T00:51:44;17.80;99.90
23283;DHT22;11810;51.178;3.878;2022-09-01T00:54:17;17.70;99.90
23283;DHT22;11810;51.178;3.878;2022-09-01T00:56:44;17.70;99.90
23283;DHT22;11810;51.178;3.878;2022-09-01T00:59:11;17.70;99.90
23283;DHT22;11810;51.178;3.878;2022-09-01T01:01:37;17.60;99.90
23283;DHT22;11810;51.178;3.878;2022-09-01T01:04:06;17.70;99.90
23283;DHT22;11810;51.178;3.878;2022-09-01T01:06:50;17.60;99.90
23283;DHT22;11810;51.178;3.878;2022-09-01T01:09:24;17.50;99.90
23283;DHT22;11810;51.178;3.878;2022-09-01T01:11:51;17.60;99.90
23283;DHT22;11810;51.178;3.878;2022-09-01T01:14:18;17.70;99.90
23283;DHT22;11810;51.178;3.878;2022-09-01T01:16:48;17.70;99.90
23283;DHT22;11810;51.178;3.878;2022-09-01T01:22:12;17.60;99.90
23283;DHT22;11810;51.178;3.878;2022-09-01T01:24:57;17.60;99.90
23283;DHT22;11810;51.178;3.878;2022-09-01T01:27:23;17.50;99.90
23283;DHT22;11810;51.178;3.878;2022-09-01T01:29:49;17.40;99.90
23283;DHT22;11810;51.178;3.878;2022-09-01T01:32:17;17.40;99.90
23283;DHT22;11810;51.178;3.878;2022-09-01T01:34:43;17.40;99.90
23283;DHT22;11810;51.178;3.878;2022-09-01T01:37:12;17.40;99.90
23283;DHT22;11810;51.178;3.878;2022-09-01T01:39:41;17.60;99.90
23283;DHT22;11810;51.178;3.878;2022-09-01T01:42:09;17.60;99.90
23283;DHT22;11810;51.178;3.878;2022-09-01T01:44:37;17.60;99.90
23283;DHT22;11810;51.178;3.878;2022-09-01T01:47:06;17.60;99.90
23283;DHT22;11810;51.178;3.878;2022-09-01T01:49:35;17.60;99.90
23283;DHT22;11810;51.178;3.878;2022-09-01T01:52:03;17.60;99.90
23283;DHT22;11810;51.178;3.878;2022-09-01T01:54:29;17.70;99.90
23283;DHT22;11810;51.178;3.878;2022-09-01T01:56:58;17.80;99.90
23283;DHT22;11810;51.178;3.878;2022-09-01T01:59:24;18.00;99.90
23283;DHT22;11810;51.178;3.878;2022-09-01T02:01:51;18.10;99.90
23283;DHT22;11810;51.178;3.878;2022-09-01T02:04:19;18.10;99.90
23283;DHT22;11810;51.178;3.878;2022-09-01T02:06:45;18.10;99.90
23283;DHT22;11810;51.178;3.878;2022-09-01T02:09:14;18.20;99.90
23283;DHT22;11810;51.178;3.878;2022-09-01T02:11:41;18.20;99.90
23283;DHT22;11810;51.178;3.878;2022-09-01T02:14:08;18.20;99.90
23283;DHT22;11810;51.178;3.878;2022-09-01T02:16:35;18.00;99.90
23283;DHT22;11810;51.178;3.878;2022-09-01T02:19:02;18.10;99.90
23283;DHT22;11810;51.178;3.878;2022-09-01T02:21:28;18.20;99.90
23283;DHT22;11810;51.178;3.878;2022-09-01T02:24:00;18.20;99.90
23283;DHT22;11810;51.178;3.878;2022-09-01T02:26:33;18.20;99.90
23283;DHT22;11810;51.178;3.878;2022-09-01T02:29:05;18.20;99.90
23283;DHT22;11810;51.178;3.878;2022-09-01T02:31:33;18.20;99.90
23283;DHT22;11810;51.178;3.878;2022-09-01T02:34:06;18.20;99.90
23283;DHT22;11810;51.178;3.878;2022-09-01T02:36:43;18.30;99.90
23283;DHT22;11810;51.178;3.878;2022-09-01T02:39:17;18.10;99.90
23283;DHT22;11810;51.178;3.878;2022-09-01T02:41:44;18.10;99.90
23283;DHT22;11810;51.178;3.878;2022-09-01T02:44:10;18.20;99.90
23283;DHT22;11810;51.178;3.878;2022-09-01T02:46:43;18.30;99.90
23283;DHT22;11810;51.178;3.878;2022-09-01T02:49:20;18.30;99.90
23283;DHT22;11810;51.178;3.878;2022-09-01T02:51:51;18.40;99.90
23283;DHT22;11810;51.178;3.878;2022-09-01T02:54:20;18.30;99.90
23283;DHT22;11810;51.178;3.878;2022-09-01T02:56:47;18.30;99.90
23283;DHT22;11810;51.178;3.878;2022-09-01T02:59:19;18.50;99.90
23283;DHT22;11810;51.178;3.878;2022-09-01T03:01:50;18.40;99.90
23283;DHT22;11810;51.178;3.878;2022-09-01T03:04:18;18.40;99.90
23283;DHT22;11810;51.178;3.878;2022-09-01T03:06:44;18.30;99.90
23283;DHT22;11810;51.178;3.878;2022-09-01T03:09:14;18.30;99.90
23283;DHT22;11810;51.178;3.878;2022-09-01T03:11:42;18.20;99.90
23283;DHT22;11810;51.178;3.878;2022-09-01T03:14:08;18.20;99.90
23283;DHT22;11810;51.178;3.878;2022-09-01T03:16:35;18.00;99.90
23283;DHT22;11810;51.178;3.878;2022-09-01T03:19:05;18.00;99.90
23283;DHT22;11810;51.178;3.878;2022-09-01T03:21:35;17.90;99.90
23283;DHT22;11810;51.178;3.878;2022-09-01T03:24:11;17.80;99.90
23283;DHT22;11810;51.178;3.878;2022-09-01T03:26:40;17.80;99.90
23283;DHT22;11810;51.178;3.878;2022-09-01T03:29:07;17.60;99.90
23283;DHT22;11810;51.178;3.878;2022-09-01T03:31:33;17.60;99.90
23283;DHT22;11810;51.178;3.878;2022-09-01T03:34:00;17.50;99.90
23283;DHT22;11810;51.178;3.878;2022-09-01T03:36:28;17.40;99.90
23283;DHT22;11810;51.178;3.878;2022-09-01T03:38:56;17.30;99.90
23283;DHT22;11810;51.178;3.878;2022-09-01T03:41:27;17.20;99.90
23283;DHT22;11810;51.178;3.878;2022-09-01T03:43:53;17.10;99.90
23283;DHT22;11810;51.178;3.878;2022-09-01T03:46:20;17.10;99.90
23283;DHT22;11810;51.178;3.878;2022-09-01T03:48:51;17.10;99.90
23283;DHT22;11810;51.178;3.878;2022-09-01T03:51:20;17.00;99.90
23283;DHT22;11810;51.178;3.878;2022-09-01T03:53:48;16.80;99.90
23283;DHT22;11810;51.178;3.878;2022-09-01T03:56:14;16.70;99.90
23283;DHT22;11810;51.178;3.878;2022-09-01T03:58:41;16.60;99.90
23283;DHT22;11810;51.178;3.878;2022-09-01T04:01:12;16.40;99.90
23283;DHT22;11810;51.178;3.878;2022-09-01T04:03:39;16.30;99.90
23283;DHT22;11810;51.178;3.878;2022-09-01T04:06:08;16.10;99.90
23283;DHT22;11810;51.178;3.878;2022-09-01T04:08:34;16.00;99.90
23283;DHT22;11810;51.178;3.878;2022-09-01T04:11:03;15.90;99.90
23283;DHT22;11810;51.178;3.878;2022-09-01T04:13:34;16.00;99.90
23283;DHT22;11810;51.178;3.878;2022-09-01T04:16:01;15.90;99.90
23283;DHT22;11810;51.178;3.878;2022-09-01T04:18:27;15.80;99.90
23283;DHT22;11810;51.178;3.878;2022-09-01T04:20:58;15.90;99.90
23283;DHT22;11810;51.178;3.878;2022-09-01T04:23:33;15.80;99.90
23283;DHT22;11810;51.178;3.878;2022-09-01T04:26:02;15.70;99.90
23283;DHT22;11810;51.178;3.878;2022-09-01T04:28:37;15.70;99.90
23283;DHT22;11810;51.178;3.878;2022-09-01T04:31:07;15.60;99.90
23283;DHT22;11810;51.178;3.878;2022-09-01T04:33:35;15.60;99.90
23283;DHT22;11810;51.178;3.878;2022-09-01T04:39:00;15.60;99.90
23283;DHT22;11810;51.178;3.878;2022-09-01T04:41:29;15.50;99.90
23283;DHT22;11810;51.178;3.878;2022-09-01T04:43:58;15.40;99.90
23283;DHT22;11810;51.178;3.878;2022-09-01T04:46:26;15.30;99.90
23283;DHT22;11810;51.178;3.878;2022-09-01T04:48:56;15.20;99.90
23283;DHT22;11810;51.178;3.878;2022-09-01T04:51:23;15.10;99.90
23283;DHT22;11810;51.178;3.878;2022-09-01T04:53:56;15.00;99.90
23283;DHT22;11810;51.178;3.878;2022-09-01T04:56:24;15.00;99.90
23283;DHT22;11810;51.178;3.878;2022-09-01T04:58:52;14.90;99.90
23283;DHT22;11810;51.178;3.878;2022-09-01T05:01:24;15.00;99.90
23283;DHT22;11810;51.178;3.878;2022-09-01T05:03:51;15.00;99.90
23283;DHT22;11810;51.178;3.878;2022-09-01T05:06:28;14.90;99.90
23283;DHT22;11810;51.178;3.878;2022-09-01T05:08:54;14.70;99.90
23283;DHT22;11810;51.178;3.878;2022-09-01T05:11:24;14.70;99.90
23283;DHT22;11810;51.178;3.878;2022-09-01T05:13:50;14.70;99.90
23283;DHT22;11810;51.178;3.878;2022-09-01T05:16:23;14.80;99.90
23283;DHT22;11810;51.178;3.878;2022-09-01T05:18:50;14.80;99.90
23283;DHT22;11810;51.178;3.878;2022-09-01T05:21:22;14.70;99.90
23283;DHT22;11810;51.178;3.878;2022-09-01T05:23:53;14.60;99.90
23283;DHT22;11810;51.178;3.878;2022-09-01T05:26:24;14.60;99.90
23283;DHT22;11810;51.178;3.878;2022-09-01T05:28:53;14.60;99.90
23283;DHT22;11810;51.178;3.878;2022-09-01T05:31:23;14.70;99.90
23283;DHT22;11810;51.178;3.878;2022-09-01T05:33:49;14.80;99.90
23283;DHT22;11810;51.178;3.878;2022-09-01T05:36:19;15.20;99.90
23283;DHT22;11810;51.178;3.878;2022-09-01T05:38:47;15.50;99.90
23283;DHT22;11810;51.178;3.878;2022-09-01T05:41:15;15.80;99.90
23283;DHT22;11810;51.178;3.878;2022-09-01T05:43:46;16.10;99.90
23283;DHT22;11810;51.178;3.878;2022-09-01T05:46:23;16.50;99.90
23283;DHT22;11810;51.178;3.878;2022-09-01T05:48:53;16.90;99.90
23283;DHT22;11810;51.178;3.878;2022-09-01T05:51:22;17.40;99.90
23283;DHT22;11810;51.178;3.878;2022-09-01T05:53:52;17.80;99.90
23283;DHT22;11810;51.178;3.878;2022-09-01T05:56:20;18.40;99.90
23283;DHT22;11810;51.178;3.878;2022-09-01T05:58:47;18.70;99.90
23283;DHT22;11810;51.178;3.878;2022-09-01T06:01:17;19.20;99.90
23283;DHT22;11810;51.178;3.878;2022-09-01T06:03:50;19.50;99.90
23283;DHT22;11810;51.178;3.878;2022-09-01T06:06:21;19.50;99.90
23283;DHT22;11810;51.178;3.878;2022-09-01T06:08:49;20.00;99.90
23283;DHT22;11810;51.178;3.878;2022-09-01T06:11:16;20.30;99.90
23283;DHT22;11810;51.178;3.878;2022-09-01T06:13:44;20.80;99.90
23283;DHT22;11810;51.178;3.878;2022-09-01T06:16:13;21.00;99.90
23283;DHT22;11810;51.178;3.878;2022-09-01T06:18:41;21.40;99.90
23283;DHT22;11810;51.178;3.878;2022-09-01T06:21:09;21.70;99.90
23283;DHT22;11810;51.178;3.878;2022-09-01T06:23:43;21.90;99.90
23283;DHT22;11810;51.178;3.878;2022-09-01T06:26:27;21.40;99.90
23283;DHT22;11810;51.178;3.878;2022-09-01T06:29:08;21.90;99.90
23283;DHT22;11810;51.178;3.878;2022-09-01T06:31:36;22.70;99.90
23283;DHT22;11810;51.178;3.878;2022-09-01T06:34:07;22.90;99.90
23283;DHT22;11810;51.178;3.878;2022-09-01T06:36:36;23.00;99.90
23283;DHT22;11810;51.178;3.878;2022-09-01T06:39:05;23.00;99.90
23283;DHT22;11810;51.178;3.878;2022-09-01T06:41:32;23.30;99.90
23283;DHT22;11810;51.178;3.878;2022-09-01T06:43:58;23.20;99.90
23283;DHT22;11810;51.178;3.878;2022-09-01T06:46:26;23.50;99.90
23283;DHT22;11810;51.178;3.878;2022-09-01T06:48:54;23.70;99.90
23283;DHT22;11810;51.178;3.878;2022-09-01T06:51:24;24.10;99.90
23283;DHT22;11810;51.178;3.878;2022-09-01T06:53:51;24.20;99.90
23283;DHT22;11810;51.178;3.878;2022-09-01T06:56:22;24.40;99.90
23283;DHT22;11810;51.178;3.878;2022-09-01T06:58:51;24.50;99.90
23283;DHT22;11810;51.178;3.878;2022-09-01T07:01:19;24.20;99.90
23283;DHT22;11810;51.178;3.878;2022-09-01T07:03:48;24.20;99.90
23283;DHT22;11810;51.178;3.878;2022-09-01T07:06:17;24.20;99.90
23283;DHT22;11810;51.178;3.878;2022-09-01T07:08:44;24.70;99.90
23283;DHT22;11810;51.178;3.878;2022-09-01T07:11:19;24.90;99.90
23283;DHT22;11810;51.178;3.878;2022-09-01T07:13:56;25.00;99.90
23283;DHT22;11810;51.178;3.878;2022-09-01T07:16:25;25.20;99.90
23283;DHT22;11810;51.178;3.878;2022-09-01T07:18:56;25.30;99.90
23283;DHT22;11810;51.178;3.878;2022-09-01T07:21:25;25.40;99.90
23283;DHT22;11810;51.178;3.878;2022-09-01T07:23:51;25.40;99.90
23283;DHT22;11810;51.178;3.878;2022-09-01T07:26:18;25.80;99.90
23283;DHT22;11810;51.178;3.878;2022-09-01T07:28:45;26.40;99.90
23283;DHT22;11810;51.178;3.878;2022-09-01T07:31:23;26.60;99.90
23283;DHT22;11810;51.178;3.878;2022-09-01T07:33:51;26.80;99.90
23283;DHT22;11810;51.178;3.878;2022-09-01T07:36:18;27.20;99.90
23283;DHT22;11810;51.178;3.878;2022-09-01T07:38:44;27.70;99.90
23283;DHT22;11810;51.178;3.878;2022-09-01T07:41:13;27.50;99.90
23283;DHT22;11810;51.178;3.878;2022-09-01T07:43:40;27.70;99.90
23283;DHT22;11810;51.178;3.878;2022-09-01T07:46:10;27.90;99.90
23283;DHT22;11810;51.178;3.878;2022-09-01T07:48:37;28.10;99.90
23283;DHT22;11810;51.178;3.878;2022-09-01T07:51:04;28.50;99.90
23283;DHT22;11810;51.178;3.878;2022-09-01T07:53:33;28.90;99.90
23283;DHT22;11810;51.178;3.878;2022-09-01T07:56:06;28.90;99.90
23283;DHT22;11810;51.178;3.878;2022-09-01T07:58:34;29.40;99.90
23283;DHT22;11810;51.178;3.878;2022-09-01T08:01:00;29.50;99.90
23283;DHT22;11810;51.178;3.878;2022-09-01T08:03:28;29.10;99.90
23283;DHT22;11810;51.178;3.878;2022-09-01T08:05:55;29.20;99.90
23283;DHT22;11810;51.178;3.878;2022-09-01T08:08:28;29.50;99.90
23283;DHT22;11810;51.178;3.878;2022-09-01T08:10:54;30.00;99.90
23283;DHT22;11810;51.178;3.878;2022-09-01T08:13:20;29.70;99.90
23283;DHT22;11810;51.178;3.878;2022-09-01T08:15:46;29.60;99.90
23283;DHT22;11810;51.178;3.878;2022-09-01T08:18:12;29.80;99.90
23283;DHT22;11810;51.178;3.878;2022-09-01T08:20:40;29.80;99.90
23283;DHT22;11810;51.178;3.878;2022-09-01T08:23:11;30.10;99.90
23283;DHT22;11810;51.178;3.878;2022-09-01T08:25:39;29.90;99.90
23283;DHT22;11810;51.178;3.878;2022-09-01T08:28:06;29.80;99.90
23283;DHT22;11810;51.178;3.878;2022-09-01T08:30:33;30.00;99.90
23283;DHT22;11810;51.178;3.878;2022-09-01T08:33:00;30.10;99.90
23283;DHT22;11810;51.178;3.878;2022-09-01T08:35:26;29.60;99.90
23283;DHT22;11810;51.178;3.878;2022-09-01T08:37:54;30.10;99.90
23283;DHT22;11810;51.178;3.878;2022-09-01T08:40:21;30.00;99.90
23283;DHT22;11810;51.178;3.878;2022-09-01T08:45:48;30.90;99.90
23283;DHT22;11810;51.178;3.878;2022-09-01T08:48:26;31.00;99.90
23283;DHT22;11810;51.178;3.878;2022-09-01T08:50:58;31.00;99.90
23283;DHT22;11810;51.178;3.878;2022-09-01T08:53:37;30.30;99.90
23283;DHT22;11810;51.178;3.878;2022-09-01T08:56:08;30.60;99.90
23283;DHT22;11810;51.178;3.878;2022-09-01T08:58:35;30.20;99.90
23283;DHT22;11810;51.178;3.878;2022-09-01T09:01:15;29.90;99.90
23283;DHT22;11810;51.178;3.878;2022-09-01T09:06:39;31.20;99.90
23283;DHT22;11810;51.178;3.878;2022-09-01T09:09:07;30.90;99.90
23283;DHT22;11810;51.178;3.878;2022-09-01T09:16:53;30.50;99.90
23283;DHT22;11810;51.178;3.878;2022-09-01T09:19:40;31.10;99.90
23283;DHT22;11810;51.178;3.878;2022-09-01T09:22:10;31.80;99.90
23283;DHT22;11810;51.178;3.878;2022-09-01T09:27:27;33.20;99.90
23283;DHT22;11810;51.178;3.878;2022-09-01T09:30:28;33.80;99.00
23283;DHT22;11810;51.178;3.878;2022-09-01T09:32:56;33.50;98.40
23283;DHT22;11810;51.178;3.878;2022-09-01T09:41:18;35.30;96.20
23283;DHT22;11810;51.178;3.878;2022-09-01T09:43:55;35.70;95.50
23283;DHT22;11810;51.178;3.878;2022-09-01T09:46:36;35.60;95.30
23283;DHT22;11810;51.178;3.878;2022-09-01T09:51:54;35.60;94.20
23283;DHT22;11810;51.178;3.878;2022-09-01T09:54:23;35.90;93.80
23283;DHT22;11810;51.178;3.878;2022-09-01T10:02:33;36.60;91.90
23283;DHT22;11810;51.178;3.878;2022-09-01T10:05:20;36.70;91.30
23283;DHT22;11810;51.178;3.878;2022-09-01T10:07:46;36.70;91.70
23283;DHT22;11810;51.178;3.878;2022-09-01T10:12:58;37.20;90.30
23283;DHT22;11810;51.178;3.878;2022-09-01T10:15:28;37.60;89.30
23283;DHT22;11810;51.178;3.878;2022-09-01T10:17:59;37.50;86.80
23283;DHT22;11810;51.178;3.878;2022-09-01T10:20:27;37.30;86.50
23283;DHT22;11810;51.178;3.878;2022-09-01T10:22:53;37.10;85.70
23283;DHT22;11810;51.178;3.878;2022-09-01T10:25:27;36.80;85.90
23283;DHT22;11810;51.178;3.878;2022-09-01T10:28:08;36.60;85.50
23283;DHT22;11810;51.178;3.878;2022-09-01T10:30:37;36.30;85.60
23283;DHT22;11810;51.178;3.878;2022-09-01T10:33:07;36.20;85.10
23283;DHT22;11810;51.178;3.878;2022-09-01T10:35:37;35.50;86.10
23283;DHT22;11810;51.178;3.878;2022-09-01T10:38:14;35.30;86.00
23283;DHT22;11810;51.178;3.878;2022-09-01T10:40:43;35.30;85.80
23283;DHT22;11810;51.178;3.878;2022-09-01T10:43:37;35.20;84.10
23283;DHT22;11810;51.178;3.878;2022-09-01T10:48:49;35.50;84.00
23283;DHT22;11810;51.178;3.878;2022-09-01T10:53:55;35.20;83.20
23283;DHT22;11810;51.178;3.878;2022-09-01T10:59:09;35.00;83.30
23283;DHT22;11810;51.178;3.878;2022-09-01T11:04:11;34.50;82.70
23283;DHT22;11810;51.178;3.878;2022-09-01T11:09:20;34.10;82.00
23283;DHT22;11810;51.178;3.878;2022-09-01T11:17:26;34.10;82.70
23283;DHT22;11810;51.178;3.878;2022-09-01T11:20:07;33.90;82.40
23283;DHT22;11810;51.178;3.878;2022-09-01T11:22:43;34.10;83.20
23283;DHT22;11810;51.178;3.878;2022-09-01T11:31:34;35.10;82.50
23283;DHT22;11810;51.178;3.878;2022-09-01T11:39:19;35.30;81.90
23283;DHT22;11810;51.178;3.878;2022-09-01T11:42:11;35.90;81.60
23283;DHT22;11810;51.178;3.878;2022-09-01T11:47:23;36.10;80.70
23283;DHT22;11810;51.178;3.878;2022-09-01T11:49:54;35.90;79.40
23283;DHT22;11810;51.178;3.878;2022-09-01T11:52:24;35.80;78.90
23283;DHT22;11810;51.178;3.878;2022-09-01T11:54:50;35.80;78.50
23283;DHT22;11810;51.178;3.878;2022-09-01T11:57:25;36.20;78.50
23283;DHT22;11810;51.178;3.878;2022-09-01T11:59:52;36.40;78.00
23283;DHT22;11810;51.178;3.878;2022-09-01T12:02:28;36.80;77.00
23283;DHT22;11810;51.178;3.878;2022-09-01T12:04:56;36.50;77.80
23283;DHT22;11810;51.178;3.878;2022-09-01T12:07:42;36.30;78.70
23283;DHT22;11810;51.178;3.878;2022-09-01T12:13:19;36.90;78.00
23283;DHT22;11810;51.178;3.878;2022-09-01T12:16:07;36.50;76.30
23283;DHT22;11810;51.178;3.878;2022-09-01T12:18:44;35.60;75.50
23283;DHT22;11810;51.178;3.878;2022-09-01T12:21:29;34.90;77.80
23283;DHT22;11810;51.178;3.878;2022-09-01T12:24:19;35.00;77.60
23283;DHT22;11810;51.178;3.878;2022-09-01T12:26:48;35.50;76.70
23283;DHT22;11810;51.178;3.878;2022-09-01T12:29:15;36.00;75.80
23283;DHT22;11810;51.178;3.878;2022-09-01T12:31:44;35.70;75.80
23283;DHT22;11810;51.178;3.878;2022-09-01T12:37:09;35.60;75.10
23283;DHT22;11810;51.178;3.878;2022-09-01T12:39:39;35.50;75.50
23283;DHT22;11810;51.178;3.878;2022-09-01T12:42:10;36.20;73.30
23283;DHT22;11810;51.178;3.878;2022-09-01T12:52:50;35.70;73.60
23283;DHT22;11810;51.178;3.878;2022-09-01T12:58:03;34.70;73.30
23283;DHT22;11810;51.178;3.878;2022-09-01T13:00:32;33.70;75.20
23283;DHT22;11810;51.178;3.878;2022-09-01T13:05:33;33.70;74.30
23283;DHT22;11810;51.178;3.878;2022-09-01T13:08:02;34.00;73.60
23283;DHT22;11810;51.178;3.878;2022-09-01T13:10:37;33.90;74.30
23283;DHT22;11810;51.178;3.878;2022-09-01T13:13:05;34.70;74.30
23283;DHT22;11810;51.178;3.878;2022-09-01T13:15:31;34.20;73.90
23283;DHT22;11810;51.178;3.878;2022-09-01T13:17:58;33.90;73.10
23283;DHT22;11810;51.178;3.878;2022-09-01T13:20:24;33.70;73.50
23283;DHT22;11810;51.178;3.878;2022-09-01T13:22:50;33.50;73.50
23283;DHT22;11810;51.178;3.878;2022-09-01T13:25:18;33.00;74.60
23283;DHT22;11810;51.178;3.878;2022-09-01T13:27:45;32.50;75.10
23283;DHT22;11810;51.178;3.878;2022-09-01T13:30:18;32.00;75.60
23283;DHT22;11810;51.178;3.878;2022-09-01T13:32:45;31.40;76.60
23283;DHT22;11810;51.178;3.878;2022-09-01T13:35:17;31.20;77.20
23283;DHT22;11810;51.178;3.878;2022-09-01T13:37:45;31.20;77.70
23283;DHT22;11810;51.178;3.878;2022-09-01T13:40:11;31.50;77.90
23283;DHT22;11810;51.178;3.878;2022-09-01T13:42:44;31.10;77.20
23283;DHT22;11810;51.178;3.878;2022-09-01T13:45:11;31.30;76.40
23283;DHT22;11810;51.178;3.878;2022-09-01T13:47:41;31.20;75.70
23283;DHT22;11810;51.178;3.878;2022-09-01T13:50:08;30.70;76.70
23283;DHT22;11810;51.178;3.878;2022-09-01T13:52:37;30.50;76.80
23283;DHT22;11810;51.178;3.878;2022-09-01T13:55:05;30.40;76.70
23283;DHT22;11810;51.178;3.878;2022-09-01T13:57:31;29.90;77.40
23283;DHT22;11810;51.178;3.878;2022-09-01T13:59:58;29.40;78.80
23283;DHT22;11810;51.178;3.878;2022-09-01T14:02:24;29.30;79.00
23283;DHT22;11810;51.178;3.878;2022-09-01T14:04:51;29.20;79.20
23283;DHT22;11810;51.178;3.878;2022-09-01T14:07:17;29.40;78.10
23283;DHT22;11810;51.178;3.878;2022-09-01T14:09:44;29.90;78.80
23283;DHT22;11810;51.178;3.878;2022-09-01T14:12:10;30.30;77.90
23283;DHT22;11810;51.178;3.878;2022-09-01T14:14:36;30.50;77.70
23283;DHT22;11810;51.178;3.878;2022-09-01T14:17:03;30.80;78.00
23283;DHT22;11810;51.178;3.878;2022-09-01T14:19:29;31.30;76.70
23283;DHT22;11810;51.178;3.878;2022-09-01T14:21:55;31.50;77.30
23283;DHT22;11810;51.178;3.878;2022-09-01T14:24:22;31.50;77.50
23283;DHT22;11810;51.178;3.878;2022-09-01T14:26:48;31.20;76.70
23283;DHT22;11810;51.178;3.878;2022-09-01T14:29:15;31.20;77.00
23283;DHT22;11810;51.178;3.878;2022-09-01T14:31:41;30.90;77.40
23283;DHT22;11810;51.178;3.878;2022-09-01T14:34:10;30.40;78.10
23283;DHT22;11810;51.178;3.878;2022-09-01T14:36:37;29.90;78.50
23283;DHT22;11810;51.178;3.878;2022-09-01T14:39:04;29.90;79.00
23283;DHT22;11810;51.178;3.878;2022-09-01T14:41:30;29.60;78.20
23283;DHT22;11810;51.178;3.878;2022-09-01T14:43:56;29.40;78.10
23283;DHT22;11810;51.178;3.878;2022-09-01T14:46:29;29.00;78.30
23283;DHT22;11810;51.178;3.878;2022-09-01T14:48:56;28.80;79.50
23283;DHT22;11810;51.178;3.878;2022-09-01T14:51:28;28.90;79.50
23283;DHT22;11810;51.178;3.878;2022-09-01T14:53:54;29.50;78.50
23283;DHT22;11810;51.178;3.878;2022-09-01T14:56:21;29.70;77.60
23283;DHT22;11810;51.178;3.878;2022-09-01T14:58:48;29.90;77.80
23283;DHT22;11810;51.178;3.878;2022-09-01T15:01:16;30.30;77.70
23283;DHT22;11810;51.178;3.878;2022-09-01T15:03:43;30.40;76.90
23283;DHT22;11810;51.178;3.878;2022-09-01T15:06:12;30.30;77.10
23283;DHT22;11810;51.178;3.878;2022-09-01T15:08:39;30.50;76.90
23283;DHT22;11810;51.178;3.878;2022-09-01T15:11:12;30.40;77.80
23283;DHT22;11810;51.178;3.878;2022-09-01T15:13:39;30.60;77.80
23283;DHT22;11810;51.178;3.878;2022-09-01T15:16:12;30.70;77.00
23283;DHT22;11810;51.178;3.878;2022-09-01T15:18:39;30.70;76.60
23283;DHT22;11810;51.178;3.878;2022-09-01T15:21:05;30.20;77.30
23283;DHT22;11810;51.178;3.878;2022-09-01T15:23:31;30.10;77.80
23283;DHT22;11810;51.178;3.878;2022-09-01T15:25:57;30.10;78.10
23283;DHT22;11810;51.178;3.878;2022-09-01T15:28:24;30.30;78.90
23283;DHT22;11810;51.178;3.878;2022-09-01T15:30:52;30.50;77.90
23283;DHT22;11810;51.178;3.878;2022-09-01T15:33:19;30.80;77.80
23283;DHT22;11810;51.178;3.878;2022-09-01T15:35:45;30.80;77.60
23283;DHT22;11810;51.178;3.878;2022-09-01T15:38:13;30.40;77.30
23283;DHT22;11810;51.178;3.878;2022-09-01T15:40:40;30.30;77.50
23283;DHT22;11810;51.178;3.878;2022-09-01T15:43:07;29.90;77.60
23283;DHT22;11810;51.178;3.878;2022-09-01T15:45:33;29.70;77.40
23283;DHT22;11810;51.178;3.878;2022-09-01T15:48:00;29.10;78.10
23283;DHT22;11810;51.178;3.878;2022-09-01T15:50:26;28.80;79.10
23283;DHT22;11810;51.178;3.878;2022-09-01T15:55:24;28.30;79.60
23283;DHT22;11810;51.178;3.878;2022-09-01T15:57:51;28.50;79.60
23283;DHT22;11810;51.178;3.878;2022-09-01T16:00:20;28.70;79.00
23283;DHT22;11810;51.178;3.878;2022-09-01T16:02:46;28.90;78.30
23283;DHT22;11810;51.178;3.878;2022-09-01T16:05:12;28.90;78.10
23283;DHT22;11810;51.178;3.878;2022-09-01T16:07:39;29.10;77.50
23283;DHT22;11810;51.178;3.878;2022-09-01T16:10:07;29.20;77.60
23283;DHT22;11810;51.178;3.878;2022-09-01T16:12:41;29.20;78.00
23283;DHT22;11810;51.178;3.878;2022-09-01T16:15:14;29.40;78.80
23283;DHT22;11810;51.178;3.878;2022-09-01T16:23:28;29.00;77.70
23283;DHT22;11810;51.178;3.878;2022-09-01T16:25:59;28.80;78.00
23283;DHT22;11810;51.178;3.878;2022-09-01T16:28:30;28.70;78.10
23283;DHT22;11810;51.178;3.878;2022-09-01T16:31:03;28.30;78.50
23283;DHT22;11810;51.178;3.878;2022-09-01T16:33:32;28.20;78.70
23283;DHT22;11810;51.178;3.878;2022-09-01T16:50:21;27.40;79.50
23283;DHT22;11810;51.178;3.878;2022-09-01T16:56:01;27.00;79.50
23283;DHT22;11810;51.178;3.878;2022-09-01T17:06:38;26.70;81.30
23283;DHT22;11810;51.178;3.878;2022-09-01T17:09:37;26.50;80.50
23283;DHT22;11810;51.178;3.878;2022-09-01T17:12:28;26.40;81.10
23283;DHT22;11810;51.178;3.878;2022-09-01T17:20:21;26.00;80.90
23283;DHT22;11810;51.178;3.878;2022-09-01T17:22:51;25.90;81.40
23283;DHT22;11810;51.178;3.878;2022-09-01T17:25:31;25.70;81.30
23283;DHT22;11810;51.178;3.878;2022-09-01T17:28:11;25.60;82.00
23283;DHT22;11810;51.178;3.878;2022-09-01T17:30:47;25.50;82.00
23283;DHT22;11810;51.178;3.878;2022-09-01T17:33:23;25.40;82.70
23283;DHT22;11810;51.178;3.878;2022-09-01T17:41:55;25.00;83.20
23283;DHT22;11810;51.178;3.878;2022-09-01T17:50:16;24.60;84.30
23283;DHT22;11810;51.178;3.878;2022-09-01T17:53:06;24.40;85.00
23283;DHT22;11810;51.178;3.878;2022-09-01T17:58:47;24.00;86.40
23283;DHT22;11810;51.178;3.878;2022-09-01T18:06:47;23.70;87.80
23283;DHT22;11810;51.178;3.878;2022-09-01T18:09:17;23.60;89.10
23283;DHT22;11810;51.178;3.878;2022-09-01T18:12:04;23.40;90.40
23283;DHT22;11810;51.178;3.878;2022-09-01T18:14:51;23.30;90.80
23283;DHT22;11810;51.178;3.878;2022-09-01T18:17:29;23.10;90.70